sensor_id;sensor_type;location;lat;lon;timestamp;temperature;humidity
21259;DHT22;10787;53.364;-1.480;2023-02-28T00:00:19;6.00;99.90
21259;DHT22;10787;53.364;-1.480;2023-02-28T00:02:45;6.00;99.90
21259;DHT22;10787;53.364;-1.480;2023-02-28T00:05:13;6.10;99.90
21259;DHT22;10787;53.364;-1.480;2023-02-28T00:07:39;6.00;99.90
21259;DHT22;10787;53.364;-1.480;2023-02-28T00:10:07;6.10;99.90
21259;DHT22;10787;53.364;-1.480;2023-02-28T00:12:36;6.00;99.90
21259;DHT22;10787;53.364;-1.480;2023-02-28T00:15:09;6.00;99.90
21259;DHT22;10787;53.364;-1.480;2023-02-28T00:17:35;6.00;99.90
21259;DHT22;10787;53.364;-1.480;2023-02-28T00:20:01;6.00;99.90
21259;DHT22;10787;53.364;-1.480;2023-02-28T00:22:27;6.00;99.90
21259;DHT22;10787;53.364;-1.480;2023-02-28T00:24:53;6.00;99.90
21259;DHT22;10787;53.364;-1.480;2023-02-28T00:27:19;6.00;99.90
21259;DHT22;10787;53.364;-1.480;2023-02-28T00:29:46;6.00;99.90
21259;DHT22;10787;53.364;-1.480;2023-02-28T00:32:12;6.00;99.90
21259;DHT22;10787;53.364;-1.480;2023-02-28T00:34:38;6.00;99.90
21259;DHT22;10787;53.364;-1.480;2023-02-28T00:37:06;6.00;99.90
21259;DHT22;10787;53.364;-1.480;2023-02-28T00:39:34;6.00;99.90
21259;DHT22;10787;53.364;-1.480;2023-02-28T00:42:00;6.00;99.90
21259;DHT22;10787;53.364;-1.480;2023-02-28T00:44:26;6.00;99.90
21259;DHT22;10787;53.364;-1.480;2023-02-28T00:46:52;6.00;99.90
21259;DHT22;10787;53.364;-1.480;2023-02-28T00:49:20;6.00;99.90
21259;DHT22;10787;53.364;-1.480;2023-02-28T00:51:46;6.00;99.90
21259;DHT22;10787;53.364;-1.480;2023-02-28T00:54:12;6.00;99.90
21259;DHT22;10787;53.364;-1.480;2023-02-28T00:56:38;6.10;99.90
21259;DHT22;10787;53.364;-1.480;2023-02-28T00:59:04;6.10;99.90
21259;DHT22;10787;53.364;-1.480;2023-02-28T01:01:29;6.10;99.90
21259;DHT22;10787;53.364;-1.480;2023-02-28T01:03:55;6.10;99.90
21259;DHT22;10787;53.364;-1.480;2023-02-28T01:06:21;6.10;99.90
21259;DHT22;10787;53.364;-1.480;2023-02-28T01:08:47;6.10;99.90
21259;DHT22;10787;53.364;-1.480;2023-02-28T01:11:14;6.10;99.90
21259;DHT22;10787;53.364;-1.480;2023-02-28T01:13:41;6.20;99.90
21259;DHT22;10787;53.364;-1.480;2023-02-28T01:16:07;6.10;99.90
21259;DHT22;10787;53.364;-1.480;2023-02-28T01:18:33;6.10;99.90
21259;DHT22;10787;53.364;-1.480;2023-02-28T01:21:06;6.20;99.90
21259;DHT22;10787;53.364;-1.480;2023-02-28T01:23:33;6.10;99.90
21259;DHT22;10787;53.364;-1.480;2023-02-28T01:26:07;6.10;99.90
21259;DHT22;10787;53.364;-1.480;2023-02-28T01:28:33;6.10;99.90
21259;DHT22;10787;53.364;-1.480;2023-02-28T01:30:59;6.10;99.90
21259;DHT22;10787;53.364;-1.480;2023-02-28T01:33:26;6.10;99.90
21259;DHT22;10787;53.364;-1.480;2023-02-28T01:35:59;6.10;99.90
21259;DHT22;10787;53.364;-1.480;2023-02-28T01:38:25;6.00;99.90
21259;DHT22;10787;53.364;-1.480;2023-02-28T01:40:50;6.00;99.90
21259;DHT22;10787;53.364;-1.480;2023-02-28T01:43:25;6.00;99.90
21259;DHT22;10787;53.364;-1.480;2023-02-28T01:45:56;6.00;99.90
21259;DHT22;10787;53.364;-1.480;2023-02-28T01:48:32;6.00;99.90
21259;DHT22;10787;53.364;-1.480;2023-02-28T01:51:01;6.00;99.90
21259;DHT22;10787;53.364;-1.480;2023-02-28T01:53:34;6.00;99.90
21259;DHT22;10787;53.364;-1.480;2023-02-28T01:56:04;6.00;99.90
21259;DHT22;10787;53.364;-1.480;2023-02-28T01:58:31;5.90;99.90
21259;DHT22;10787;53.364;-1.480;2023-02-28T02:00:57;6.00;99.90
21259;DHT22;10787;53.364;-1.480;2023-02-28T02:03:23;5.90;99.90
21259;DHT22;10787;53.364;-1.480;2023-02-28T02:05:49;5.90;99.90
21259;DHT22;10787;53.364;-1.480;2023-02-28T02:08:21;5.90;99.90
21259;DHT22;10787;53.364;-1.480;2023-02-28T02:10:57;5.90;99.90
21259;DHT22;10787;53.364;-1.480;2023-02-28T02:13:34;5.90;99.90
21259;DHT22;10787;53.364;-1.480;2023-02-28T02:18:46;5.90;99.90
21259;DHT22;10787;53.364;-1.480;2023-02-28T02:21:46;5.90;99.90
21259;DHT22;10787;53.364;-1.480;2023-02-28T02:35:56;5.90;99.90
21259;DHT22;10787;53.364;-1.480;2023-02-28T02:38:42;5.90;99.90
21259;DHT22;10787;53.364;-1.480;2023-02-28T02:43:52;5.90;99.90
21259;DHT22;10787;53.364;-1.480;2023-02-28T02:46:43;5.80;99.90
21259;DHT22;10787;53.364;-1.480;2023-02-28T02:49:18;5.80;99.90
21259;DHT22;10787;53.364;-1.480;2023-02-28T02:51:47;5.80;99.90
21259;DHT22;10787;53.364;-1.480;2023-02-28T02:54:15;5.80;99.90
21259;DHT22;10787;53.364;-1.480;2023-02-28T02:56:45;5.80;99.90
21259;DHT22;10787;53.364;-1.480;2023-02-28T02:59:14;5.70;99.90
21259;DHT22;10787;53.364;-1.480;2023-02-28T03:01:49;5.70;99.90
21259;DHT22;10787;53.364;-1.480;2023-02-28T03:04:21;5.70;99.90
21259;DHT22;10787;53.364;-1.480;2023-02-28T03:06:50;5.70;99.90
21259;DHT22;10787;53.364;-1.480;2023-02-28T03:09:24;5.70;99.90
21259;DHT22;10787;53.364;-1.480;2023-02-28T03:11:52;5.70;99.90
21259;DHT22;10787;53.364;-1.480;2023-02-28T03:20:03;5.70;99.90
21259;DHT22;10787;53.364;-1.480;2023-02-28T03:30:30;5.60;99.90
21259;DHT22;10787;53.364;-1.480;2023-02-28T03:33:05;5.60;99.90
21259;DHT22;10787;53.364;-1.480;2023-02-28T03:35:38;5.60;99.90
21259;DHT22;10787;53.364;-1.480;2023-02-28T03:38:57;5.60;99.90
21259;DHT22;10787;53.364;-1.480;2023-02-28T03:41:46;5.60;99.90
21259;DHT22;10787;53.364;-1.480;2023-02-28T03:44:25;5.60;99.90
21259;DHT22;10787;53.364;-1.480;2023-02-28T03:47:04;5.60;99.90
21259;DHT22;10787;53.364;-1.480;2023-02-28T03:49:55;5.70;99.90
21259;DHT22;10787;53.364;-1.480;2023-02-28T03:52:27;5.70;99.90
21259;DHT22;10787;53.364;-1.480;2023-02-28T03:54:56;5.70;99.90
21259;DHT22;10787;53.364;-1.480;2023-02-28T04:00:14;5.70;99.90
21259;DHT22;10787;53.364;-1.480;2023-02-28T04:02:42;5.70;99.90
21259;DHT22;10787;53.364;-1.480;2023-02-28T04:05:07;5.70;99.90
21259;DHT22;10787;53.364;-1.480;2023-02-28T04:07:34;5.70;99.90
21259;DHT22;10787;53.364;-1.480;2023-02-28T04:10:00;5.70;99.90
21259;DHT22;10787;53.364;-1.480;2023-02-28T04:12:25;5.70;99.90
21259;DHT22;10787;53.364;-1.480;2023-02-28T04:14:51;5.70;99.90
21259;DHT22;10787;53.364;-1.480;2023-02-28T04:17:17;5.70;99.90
21259;DHT22;10787;53.364;-1.480;2023-02-28T04:19:44;5.70;99.90
21259;DHT22;10787;53.364;-1.480;2023-02-28T04:22:10;5.70;99.90
21259;DHT22;10787;53.364;-1.480;2023-02-28T04:24:36;5.70;99.90
21259;DHT22;10787;53.364;-1.480;2023-02-28T04:27:02;5.80;99.90
21259;DHT22;10787;53.364;-1.480;2023-02-28T04:29:30;5.80;99.90
21259;DHT22;10787;53.364;-1.480;2023-02-28T04:31:57;5.80;99.90
21259;DHT22;10787;53.364;-1.480;2023-02-28T04:34:25;5.80;99.90
21259;DHT22;10787;53.364;-1.480;2023-02-28T04:36:53;5.80;99.90
21259;DHT22;10787;53.364;-1.480;2023-02-28T04:39:21;5.80;99.90
21259;DHT22;10787;53.364;-1.480;2023-02-28T04:41:47;5.80;99.90
21259;DHT22;10787;53.364;-1.480;2023-02-28T04:44:13;5.80;99.90
21259;DHT22;10787;53.364;-1.480;2023-02-28T04:46:40;5.80;99.90
21259;DHT22;10787;53.364;-1.480;2023-02-28T04:49:06;5.80;99.90
21259;DHT22;10787;53.364;-1.480;2023-02-28T04:51:33;5.80;99.90
21259;DHT22;10787;53.364;-1.480;2023-02-28T04:53:59;5.90;99.90
21259;DHT22;10787;53.364;-1.480;2023-02-28T04:56:24;5.90;99.90
21259;DHT22;10787;53.364;-1.480;2023-02-28T04:58:50;5.90;99.90
21259;DHT22;10787;53.364;-1.480;2023-02-28T05:01:27;5.80;99.90
21259;DHT22;10787;53.364;-1.480;2023-02-28T05:03:55;5.90;99.90
21259;DHT22;10787;53.364;-1.480;2023-02-28T05:06:22;5.80;99.90
21259;DHT22;10787;53.364;-1.480;2023-02-28T05:08:49;5.80;99.90
21259;DHT22;10787;53.364;-1.480;2023-02-28T05:11:24;5.80;99.90
21259;DHT22;10787;53.364;-1.480;2023-02-28T05:13:51;5.80;99.90
21259;DHT22;10787;53.364;-1.480;2023-02-28T05:16:18;5.80;99.90
21259;DHT22;10787;53.364;-1.480;2023-02-28T05:18:44;5.80;99.90
21259;DHT22;10787;53.364;-1.480;2023-02-28T05:21:30;5.80;99.90
21259;DHT22;10787;53.364;-1.480;2023-02-28T05:23:58;5.80;99.90
21259;DHT22;10787;53.364;-1.480;2023-02-28T05:26:25;5.80;99.90
21259;DHT22;10787;53.364;-1.480;2023-02-28T05:28:51;5.80;99.90
21259;DHT22;10787;53.364;-1.480;2023-02-28T05:31:16;5.80;99.90
21259;DHT22;10787;53.364;-1.480;2023-02-28T05:33:42;5.80;99.90
21259;DHT22;10787;53.364;-1.480;2023-02-28T05:36:08;5.80;99.90
21259;DHT22;10787;53.364;-1.480;2023-02-28T05:38:34;5.70;99.90
21259;DHT22;10787;53.364;-1.480;2023-02-28T05:41:00;5.70;99.90
21259;DHT22;10787;53.364;-1.480;2023-02-28T05:43:25;5.70;99.90
21259;DHT22;10787;53.364;-1.480;2023-02-28T05:45:51;5.70;99.90
21259;DHT22;10787;53.364;-1.480;2023-02-28T05:48:17;5.70;99.90
21259;DHT22;10787;53.364;-1.480;2023-02-28T05:50:43;5.70;99.90
21259;DHT22;10787;53.364;-1.480;2023-02-28T05:53:11;5.80;99.90
21259;DHT22;10787;53.364;-1.480;2023-02-28T05:55:37;5.70;99.90
21259;DHT22;10787;53.364;-1.480;2023-02-28T05:58:03;5.70;99.90
21259;DHT22;10787;53.364;-1.480;2023-02-28T06:00:29;5.70;99.90
21259;DHT22;10787;53.364;-1.480;2023-02-28T06:02:55;5.70;99.90
21259;DHT22;10787;53.364;-1.480;2023-02-28T06:05:23;5.70;99.90
21259;DHT22;10787;53.364;-1.480;2023-02-28T06:07:50;5.70;99.90
21259;DHT22;10787;53.364;-1.480;2023-02-28T06:10:15;5.70;99.90
21259;DHT22;10787;53.364;-1.480;2023-02-28T06:12:41;5.80;99.90
21259;DHT22;10787;53.364;-1.480;2023-02-28T06:15:13;5.80;99.90
21259;DHT22;10787;53.364;-1.480;2023-02-28T06:17:40;5.80;99.90
21259;DHT22;10787;53.364;-1.480;2023-02-28T06:20:07;5.80;99.90
21259;DHT22;10787;53.364;-1.480;2023-02-28T06:22:35;5.80;99.90
21259;DHT22;10787;53.364;-1.480;2023-02-28T06:25:01;5.80;99.90
21259;DHT22;10787;53.364;-1.480;2023-02-28T06:27:27;5.80;99.90
21259;DHT22;10787;53.364;-1.480;2023-02-28T06:29:56;5.80;99.90
21259;DHT22;10787;53.364;-1.480;2023-02-28T06:32:22;5.80;99.90
21259;DHT22;10787;53.364;-1.480;2023-02-28T06:34:48;5.80;99.90
21259;DHT22;10787;53.364;-1.480;2023-02-28T06:37:14;5.80;99.90
21259;DHT22;10787;53.364;-1.480;2023-02-28T06:39:40;5.80;99.90
21259;DHT22;10787;53.364;-1.480;2023-02-28T06:42:06;5.80;99.90
21259;DHT22;10787;53.364;-1.480;2023-02-28T06:44:31;5.80;99.90
21259;DHT22;10787;53.364;-1.480;2023-02-28T06:47:04;5.90;99.90
21259;DHT22;10787;53.364;-1.480;2023-02-28T06:49:31;6.10;99.90
21259;DHT22;10787;53.364;-1.480;2023-02-28T06:51:57;6.30;99.90
21259;DHT22;10787;53.364;-1.480;2023-02-28T06:54:23;6.50;99.90
21259;DHT22;10787;53.364;-1.480;2023-02-28T06:56:49;6.60;99.90
21259;DHT22;10787;53.364;-1.480;2023-02-28T06:59:16;6.60;99.90
21259;DHT22;10787;53.364;-1.480;2023-02-28T07:01:42;6.50;99.90
21259;DHT22;10787;53.364;-1.480;2023-02-28T07:04:08;6.50;99.90
21259;DHT22;10787;53.364;-1.480;2023-02-28T07:06:34;6.40;99.90
21259;DHT22;10787;53.364;-1.480;2023-02-28T07:09:00;6.30;99.90
21259;DHT22;10787;53.364;-1.480;2023-02-28T07:11:27;6.30;99.90
21259;DHT22;10787;53.364;-1.480;2023-02-28T07:13:54;6.20;99.90
21259;DHT22;10787;53.364;-1.480;2023-02-28T07:16:21;6.20;99.90
21259;DHT22;10787;53.364;-1.480;2023-02-28T07:18:47;6.10;99.90
21259;DHT22;10787;53.364;-1.480;2023-02-28T07:21:13;6.10;99.90
21259;DHT22;10787;53.364;-1.480;2023-02-28T07:23:40;6.10;99.90
21259;DHT22;10787;53.364;-1.480;2023-02-28T07:26:11;6.10;99.90
21259;DHT22;10787;53.364;-1.480;2023-02-28T07:28:40;6.00;99.90
21259;DHT22;10787;53.364;-1.480;2023-02-28T07:31:08;6.00;99.90
21259;DHT22;10787;53.364;-1.480;2023-02-28T07:33:35;6.00;99.90
21259;DHT22;10787;53.364;-1.480;2023-02-28T07:36:03;6.10;99.90
21259;DHT22;10787;53.364;-1.480;2023-02-28T07:38:29;6.10;99.90
21259;DHT22;10787;53.364;-1.480;2023-02-28T07:40:55;6.10;99.90
21259;DHT22;10787;53.364;-1.480;2023-02-28T07:43:21;6.00;99.90
21259;DHT22;10787;53.364;-1.480;2023-02-28T07:45:47;6.10;99.90
21259;DHT22;10787;53.364;-1.480;2023-02-28T07:48:13;6.00;99.90
21259;DHT22;10787;53.364;-1.480;2023-02-28T07:50:38;6.10;99.90
21259;DHT22;10787;53.364;-1.480;2023-02-28T07:53:04;6.10;99.90
21259;DHT22;10787;53.364;-1.480;2023-02-28T07:55:30;6.10;99.90
21259;DHT22;10787;53.364;-1.480;2023-02-28T07:57:57;6.10;99.90
21259;DHT22;10787;53.364;-1.480;2023-02-28T08:00:23;6.10;99.90
21259;DHT22;10787;53.364;-1.480;2023-02-28T08:02:49;6.20;99.90
21259;DHT22;10787;53.364;-1.480;2023-02-28T08:05:15;6.20;99.90
21259;DHT22;10787;53.364;-1.480;2023-02-28T08:07:40;6.30;99.90
21259;DHT22;10787;53.364;-1.480;2023-02-28T08:10:07;6.30;99.90
21259;DHT22;10787;53.364;-1.480;2023-02-28T08:12:34;6.30;99.90
21259;DHT22;10787;53.364;-1.480;2023-02-28T08:14:59;6.40;99.90
21259;DHT22;10787;53.364;-1.480;2023-02-28T08:17:25;6.40;99.90
21259;DHT22;10787;53.364;-1.480;2023-02-28T08:19:51;6.40;99.90
21259;DHT22;10787;53.364;-1.480;2023-02-28T08:22:17;6.40;99.90
21259;DHT22;10787;53.364;-1.480;2023-02-28T08:24:43;6.40;99.90
21259;DHT22;10787;53.364;-1.480;2023-02-28T08:27:09;6.40;99.90
21259;DHT22;10787;53.364;-1.480;2023-02-28T08:29:37;6.40;99.90
21259;DHT22;10787;53.364;-1.480;2023-02-28T08:32:04;6.40;99.90
21259;DHT22;10787;53.364;-1.480;2023-02-28T08:34:30;6.30;99.90
21259;DHT22;10787;53.364;-1.480;2023-02-28T08:36:56;6.30;99.90
21259;DHT22;10787;53.364;-1.480;2023-02-28T08:39:21;6.40;99.90
21259;DHT22;10787;53.364;-1.480;2023-02-28T08:41:47;6.40;99.90
21259;DHT22;10787;53.364;-1.480;2023-02-28T08:44:13;6.40;99.90
21259;DHT22;10787;53.364;-1.480;2023-02-28T08:46:39;6.40;99.90
21259;DHT22;10787;53.364;-1.480;2023-02-28T08:49:04;6.40;99.90
21259;DHT22;10787;53.364;-1.480;2023-02-28T08:51:30;6.50;99.90
21259;DHT22;10787;53.364;-1.480;2023-02-28T08:53:59;6.50;99.90
21259;DHT22;10787;53.364;-1.480;2023-02-28T08:56:26;6.60;99.90
21259;DHT22;10787;53.364;-1.480;2023-02-28T08:58:54;6.70;99.90
21259;DHT22;10787;53.364;-1.480;2023-02-28T09:01:28;6.80;99.90
21259;DHT22;10787;53.364;-1.480;2023-02-28T09:03:55;6.90;99.90
21259;DHT22;10787;53.364;-1.480;2023-02-28T09:06:23;6.90;99.90
21259;DHT22;10787;53.364;-1.480;2023-02-28T09:08:50;7.00;99.90
21259;DHT22;10787;53.364;-1.480;2023-02-28T09:11:16;7.00;99.90
21259;DHT22;10787;53.364;-1.480;2023-02-28T09:13:44;7.10;99.90
21259;DHT22;10787;53.364;-1.480;2023-02-28T09:16:13;7.00;99.90
21259;DHT22;10787;53.364;-1.480;2023-02-28T09:18:39;7.00;99.90
21259;DHT22;10787;53.364;-1.480;2023-02-28T09:21:13;7.10;99.90
21259;DHT22;10787;53.364;-1.480;2023-02-28T09:23:41;7.00;99.90
21259;DHT22;10787;53.364;-1.480;2023-02-28T09:26:11;7.10;99.90
21259;DHT22;10787;53.364;-1.480;2023-02-28T09:28:38;7.00;99.90
21259;DHT22;10787;53.364;-1.480;2023-02-28T09:31:04;7.10;99.90
21259;DHT22;10787;53.364;-1.480;2023-02-28T09:33:30;7.10;99.90
21259;DHT22;10787;53.364;-1.480;2023-02-28T09:36:00;7.20;99.90
21259;DHT22;10787;53.364;-1.480;2023-02-28T09:38:27;7.20;99.90
21259;DHT22;10787;53.364;-1.480;2023-02-28T09:40:56;7.20;99.90
21259;DHT22;10787;53.364;-1.480;2023-02-28T09:43:26;7.10;99.90
21259;DHT22;10787;53.364;-1.480;2023-02-28T09:46:04;7.20;99.90
21259;DHT22;10787;53.364;-1.480;2023-02-28T09:48:39;7.10;99.90
21259;DHT22;10787;53.364;-1.480;2023-02-28T09:53:48;7.10;99.90
21259;DHT22;10787;53.364;-1.480;2023-02-28T09:56:38;7.20;99.90
21259;DHT22;10787;53.364;-1.480;2023-02-28T10:04:54;7.40;99.90
21259;DHT22;10787;53.364;-1.480;2023-02-28T10:10:39;7.40;99.90
21259;DHT22;10787;53.364;-1.480;2023-02-28T10:13:20;7.50;99.90
21259;DHT22;10787;53.364;-1.480;2023-02-28T10:15:51;7.50;99.90
21259;DHT22;10787;53.364;-1.480;2023-02-28T10:18:23;7.60;99.90
21259;DHT22;10787;53.364;-1.480;2023-02-28T10:20:51;7.60;99.90
21259;DHT22;10787;53.364;-1.480;2023-02-28T10:23:35;7.60;99.90
21259;DHT22;10787;53.364;-1.480;2023-02-28T10:26:12;7.60;99.90
21259;DHT22;10787;53.364;-1.480;2023-02-28T10:28:38;7.50;99.90
21259;DHT22;10787;53.364;-1.480;2023-02-28T10:31:04;7.40;99.90
21259;DHT22;10787;53.364;-1.480;2023-02-28T10:33:34;7.50;99.90
21259;DHT22;10787;53.364;-1.480;2023-02-28T10:36:01;7.60;99.90
21259;DHT22;10787;53.364;-1.480;2023-02-28T10:38:37;7.80;99.90
21259;DHT22;10787;53.364;-1.480;2023-02-28T10:41:15;8.10;99.90
21259;DHT22;10787;53.364;-1.480;2023-02-28T10:43:42;8.40;99.90
21259;DHT22;10787;53.364;-1.480;2023-02-28T10:48:39;8.80;99.90
21259;DHT22;10787;53.364;-1.480;2023-02-28T10:51:11;8.90;99.90
21259;DHT22;10787;53.364;-1.480;2023-02-28T11:01:21;9.00;99.90
21259;DHT22;10787;53.364;-1.480;2023-02-28T11:03:48;9.00;99.90
21259;DHT22;10787;53.364;-1.480;2023-02-28T11:06:19;9.00;99.90
21259;DHT22;10787;53.364;-1.480;2023-02-28T11:11:30;9.00;99.90
21259;DHT22;10787;53.364;-1.480;2023-02-28T11:14:22;8.90;99.90
21259;DHT22;10787;53.364;-1.480;2023-02-28T11:17:22;9.00;99.90
21259;DHT22;10787;53.364;-1.480;2023-02-28T11:19:51;8.90;99.90
21259;DHT22;10787;53.364;-1.480;2023-02-28T11:22:20;8.90;99.90
21259;DHT22;10787;53.364;-1.480;2023-02-28T11:24:50;8.70;99.90
21259;DHT22;10787;53.364;-1.480;2023-02-28T11:29:56;8.50;99.90
21259;DHT22;10787;53.364;-1.480;2023-02-28T11:32:27;8.50;99.90
21259;DHT22;10787;53.364;-1.480;2023-02-28T11:37:35;8.90;99.90
21259;DHT22;10787;53.364;-1.480;2023-02-28T11:40:02;9.20;99.90
21259;DHT22;10787;53.364;-1.480;2023-02-28T11:42:56;9.40;99.90
21259;DHT22;10787;53.364;-1.480;2023-02-28T11:55:54;9.80;99.90
21259;DHT22;10787;53.364;-1.480;2023-02-28T12:01:26;9.90;99.90
21259;DHT22;10787;53.364;-1.480;2023-02-28T12:17:32;9.40;99.90
21259;DHT22;10787;53.364;-1.480;2023-02-28T12:25:24;10.00;99.90
21259;DHT22;10787;53.364;-1.480;2023-02-28T12:27:58;9.80;99.90
21259;DHT22;10787;53.364;-1.480;2023-02-28T12:30:29;9.50;99.90
21259;DHT22;10787;53.364;-1.480;2023-02-28T12:33:09;9.30;99.90
21259;DHT22;10787;53.364;-1.480;2023-02-28T12:35:52;9.30;99.90
21259;DHT22;10787;53.364;-1.480;2023-02-28T12:38:40;9.30;99.90
21259;DHT22;10787;53.364;-1.480;2023-02-28T12:43:57;9.90;99.90
21259;DHT22;10787;53.364;-1.480;2023-02-28T12:46:32;10.00;99.90
21259;DHT22;10787;53.364;-1.480;2023-02-28T12:49:04;10.00;99.90
21259;DHT22;10787;53.364;-1.480;2023-02-28T12:51:30;9.90;99.90
21259;DHT22;10787;53.364;-1.480;2023-02-28T13:02:18;9.90;99.90
21259;DHT22;10787;53.364;-1.480;2023-02-28T13:10:13;9.30;99.90
21259;DHT22;10787;53.364;-1.480;2023-02-28T13:12:53;9.30;99.90
21259;DHT22;10787;53.364;-1.480;2023-02-28T13:15:25;9.10;99.90
21259;DHT22;10787;53.364;-1.480;2023-02-28T13:17:58;9.00;99.90
21259;DHT22;10787;53.364;-1.480;2023-02-28T13:20:47;8.90;99.90
21259;DHT22;10787;53.364;-1.480;2023-02-28T13:24:35;8.80;99.90
21259;DHT22;10787;53.364;-1.480;2023-02-28T13:35:13;8.60;99.90
21259;DHT22;10787;53.364;-1.480;2023-02-28T13:47:36;8.70;99.90
21259;DHT22;10787;53.364;-1.480;2023-02-28T14:06:47;8.70;99.90
21259;DHT22;10787;53.364;-1.480;2023-02-28T14:11:49;8.20;99.90
21259;DHT22;10787;53.364;-1.480;2023-02-28T14:17:05;7.80;99.90
21259;DHT22;10787;53.364;-1.480;2023-02-28T14:19:32;7.80;99.90
21259;DHT22;10787;53.364;-1.480;2023-02-28T14:25:15;7.80;99.90
21259;DHT22;10787;53.364;-1.480;2023-02-28T14:38:58;8.60;99.90
21259;DHT22;10787;53.364;-1.480;2023-02-28T14:41:34;8.70;99.90
21259;DHT22;10787;53.364;-1.480;2023-02-28T14:44:22;8.80;99.90
21259;DHT22;10787;53.364;-1.480;2023-02-28T14:46:52;8.80;99.90
21259;DHT22;10787;53.364;-1.480;2023-02-28T14:49:25;8.70;99.90
21259;DHT22;10787;53.364;-1.480;2023-02-28T14:52:24;8.60;99.90
21259;DHT22;10787;53.364;-1.480;2023-02-28T14:55:17;8.50;99.90
21259;DHT22;10787;53.364;-1.480;2023-02-28T14:57:55;8.40;99.90
21259;DHT22;10787;53.364;-1.480;2023-02-28T15:00:34;8.20;99.90
21259;DHT22;10787;53.364;-1.480;2023-02-28T15:03:19;8.10;99.90
21259;DHT22;10787;53.364;-1.480;2023-02-28T15:05:59;8.10;99.90
21259;DHT22;10787;53.364;-1.480;2023-02-28T15:08:26;8.20;99.90
21259;DHT22;10787;53.364;-1.480;2023-02-28T15:11:03;8.30;99.90
21259;DHT22;10787;53.364;-1.480;2023-02-28T15:13:45;8.60;99.90
21259;DHT22;10787;53.364;-1.480;2023-02-28T15:16:17;8.80;99.90
21259;DHT22;10787;53.364;-1.480;2023-02-28T15:18:54;8.90;99.90
21259;DHT22;10787;53.364;-1.480;2023-02-28T15:21:23;8.90;99.90
21259;DHT22;10787;53.364;-1.480;2023-02-28T15:23:58;8.80;99.90
21259;DHT22;10787;53.364;-1.480;2023-02-28T15:26:29;8.60;99.90
21259;DHT22;10787;53.364;-1.480;2023-02-28T15:29:07;8.50;99.90
21259;DHT22;10787;53.364;-1.480;2023-02-28T15:31:44;8.40;99.90
21259;DHT22;10787;53.364;-1.480;2023-02-28T15:34:20;8.30;99.90
21259;DHT22;10787;53.364;-1.480;2023-02-28T15:36:47;8.30;99.90
21259;DHT22;10787;53.364;-1.480;2023-02-28T15:39:22;8.20;99.90
21259;DHT22;10787;53.364;-1.480;2023-02-28T15:41:48;8.40;99.90
21259;DHT22;10787;53.364;-1.480;2023-02-28T15:44:26;8.40;99.90
21259;DHT22;10787;53.364;-1.480;2023-02-28T15:47:04;8.50;99.90
21259;DHT22;10787;53.364;-1.480;2023-02-28T15:49:48;8.40;99.90
21259;DHT22;10787;53.364;-1.480;2023-02-28T15:52:20;8.40;99.90
21259;DHT22;10787;53.364;-1.480;2023-02-28T15:54:47;8.30;99.90
21259;DHT22;10787;53.364;-1.480;2023-02-28T15:57:18;8.20;99.90
21259;DHT22;10787;53.364;-1.480;2023-02-28T15:59:54;8.20;99.90
21259;DHT22;10787;53.364;-1.480;2023-02-28T16:02:32;8.20;99.90
21259;DHT22;10787;53.364;-1.480;2023-02-28T16:07:37;8.60;99.90
21259;DHT22;10787;53.364;-1.480;2023-02-28T16:10:05;8.70;99.90
21259;DHT22;10787;53.364;-1.480;2023-02-28T16:12:33;8.70;99.90
21259;DHT22;10787;53.364;-1.480;2023-02-28T16:15:02;8.50;99.90
21259;DHT22;10787;53.364;-1.480;2023-02-28T16:17:31;8.40;99.90
21259;DHT22;10787;53.364;-1.480;2023-02-28T16:19:58;8.20;99.90
21259;DHT22;10787;53.364;-1.480;2023-02-28T16:22:24;8.00;99.90
21259;DHT22;10787;53.364;-1.480;2023-02-28T16:24:50;7.90;99.90
21259;DHT22;10787;53.364;-1.480;2023-02-28T16:27:30;7.80;99.90
21259;DHT22;10787;53.364;-1.480;2023-02-28T16:29:56;7.70;99.90
21259;DHT22;10787;53.364;-1.480;2023-02-28T16:32:22;7.60;99.90
21259;DHT22;10787;53.364;-1.480;2023-02-28T16:34:48;7.50;99.90
21259;DHT22;10787;53.364;-1.480;2023-02-28T16:37:16;7.50;99.90
21259;DHT22;10787;53.364;-1.480;2023-02-28T16:39:43;7.60;99.90
21259;DHT22;10787;53.364;-1.480;2023-02-28T16:42:23;7.60;99.90
21259;DHT22;10787;53.364;-1.480;2023-02-28T16:44:50;7.60;99.90
21259;DHT22;10787;53.364;-1.480;2023-02-28T16:47:17;7.60;99.90
21259;DHT22;10787;53.364;-1.480;2023-02-28T16:49:43;7.60;99.90
21259;DHT22;10787;53.364;-1.480;2023-02-28T16:52:09;7.50;99.90
21259;DHT22;10787;53.364;-1.480;2023-02-28T16:54:36;7.40;99.90
21259;DHT22;10787;53.364;-1.480;2023-02-28T16:57:01;7.40;99.90
21259;DHT22;10787;53.364;-1.480;2023-02-28T16:59:28;7.40;99.90
21259;DHT22;10787;53.364;-1.480;2023-02-28T17:01:55;7.40;99.90
21259;DHT22;10787;53.364;-1.480;2023-02-28T17:04:26;7.30;99.90
21259;DHT22;10787;53.364;-1.480;2023-02-28T17:06:52;7.30;99.90
21259;DHT22;10787;53.364;-1.480;2023-02-28T17:09:20;7.30;99.90
21259;DHT22;10787;53.364;-1.480;2023-02-28T17:11:47;7.20;99.90
21259;DHT22;10787;53.364;-1.480;2023-02-28T17:14:13;7.20;99.90
21259;DHT22;10787;53.364;-1.480;2023-02-28T17:16:40;7.10;99.90
21259;DHT22;10787;53.364;-1.480;2023-02-28T17:19:11;7.10;99.90
21259;DHT22;10787;53.364;-1.480;2023-02-28T17:21:37;7.00;99.90
21259;DHT22;10787;53.364;-1.480;2023-02-28T17:24:04;7.00;99.90
21259;DHT22;10787;53.364;-1.480;2023-02-28T17:26:29;6.90;99.90
21259;DHT22;10787;53.364;-1.480;2023-02-28T17:28:57;6.90;99.90
21259;DHT22;10787;53.364;-1.480;2023-02-28T17:31:24;7.00;99.90
21259;DHT22;10787;53.364;-1.480;2023-02-28T17:33:51;6.90;99.90
21259;DHT22;10787;53.364;-1.480;2023-02-28T17:36:21;7.00;99.90
21259;DHT22;10787;53.364;-1.480;2023-02-28T17:38:48;6.90;99.90
21259;DHT22;10787;53.364;-1.480;2023-02-28T17:41:14;6.90;99.90
21259;DHT22;10787;53.364;-1.480;2023-02-28T17:43:40;6.90;99.90
21259;DHT22;10787;53.364;-1.480;2023-02-28T17:46:15;6.90;99.90
21259;DHT22;10787;53.364;-1.480;2023-02-28T17:48:41;6.80;99.90
21259;DHT22;10787;53.364;-1.480;2023-02-28T17:51:09;6.80;99.90
21259;DHT22;10787;53.364;-1.480;2023-02-28T17:53:35;6.80;99.90
21259;DHT22;10787;53.364;-1.480;2023-02-28T17:56:01;6.80;99.90
21259;DHT22;10787;53.364;-1.480;2023-02-28T17:58:27;6.80;99.90
21259;DHT22;10787;53.364;-1.480;2023-02-28T18:00:53;6.80;99.90
21259;DHT22;10787;53.364;-1.480;2023-02-28T18:03:20;6.80;99.90
21259;DHT22;10787;53.364;-1.480;2023-02-28T18:05:46;6.70;99.90
21259;DHT22;10787;53.364;-1.480;2023-02-28T18:08:13;6.70;99.90
21259;DHT22;10787;53.364;-1.480;2023-02-28T18:10:39;6.70;99.90
21259;DHT22;10787;53.364;-1.480;2023-02-28T18:13:04;6.70;99.90
21259;DHT22;10787;53.364;-1.480;2023-02-28T18:15:30;6.70;99.90
21259;DHT22;10787;53.364;-1.480;2023-02-28T18:17:56;6.70;99.90
21259;DHT22;10787;53.364;-1.480;2023-02-28T18:20:22;6.70;99.90
21259;DHT22;10787;53.364;-1.480;2023-02-28T18:22:48;6.70;99.90
21259;DHT22;10787;53.364;-1.480;2023-02-28T18:25:14;6.70;99.90
21259;DHT22;10787;53.364;-1.480;2023-02-28T18:27:42;6.70;99.90
21259;DHT22;10787;53.364;-1.480;2023-02-28T18:30:21;6.70;99.90
21259;DHT22;10787;53.364;-1.480;2023-02-28T18:32:47;6.70;99.90
21259;DHT22;10787;53.364;-1.480;2023-02-28T18:35:13;6.70;99.90